< < Back
Terminal Aerodrome Forecast


Current Version              Previous Versions:   1  2  3  4  5  6  7  8  9  

Terminal Aerodrome Forecast

313
FTUS42 KJAX 280531
TAFGNV
TAF
KGNV 280531Z 2806/2906 VRB03KT P6SM VCSH SCT050 BKN080
     FM280800 00000KT P6SM FEW050 SCT080
     FM281400 26007KT P6SM SCT030 SCT250
     FM282100 24007KT P6SM VCSH BKN050
     FM290200 24004KT P6SM SCT050 SCT250=



Latest METAR

490
SAUS70 KWBC 290700 RRK
MTRGNV
METAR KGNV 290653Z AUTO 00000KT 10SM CLR 24/22 A3003 RMK AO2 SLP165
T02390222


USA.gov is the U.S. government's official web portal to all federal, state and local government web resources and services.